Time;durP1;ratioP1;P1;durP2;ratioP2;P2;SDS_P1;SDS_P2;PMS_P1;PMS_P2;Temp;Humidity;BMP_temperature;BMP_pressure;BME280_temperature;BME280_humidity;BME280_pressure;Samples;Min_cycle;Max_cycle;Signal;HPM_P1;HPM_P2
2023/10/26 00:00:52;;;;;;;7.75;2.35;;;14.40;80.80;;;;;;5032937;28;20029;-79
2023/10/26 00:03:20;;;;;;;8.05;2.17;;;14.40;80.90;;;;;;5047433;28;20025;-75
2023/10/26 00:05:48;;;;;;;7.22;2.28;;;14.50;80.60;;;;;;5051786;28;20025;-77
2023/10/26 00:08:15;;;;;;;9.98;2.33;;;14.50;80.10;;;;;;5038840;28;20029;-77
2023/10/26 00:10:43;;;;;;;9.05;2.42;;;14.50;79.70;;;;;;5049100;28;20025;-80
2023/10/26 00:13:10;;;;;;;8.57;2.70;;;14.60;79.80;;;;;;5050566;28;20037;-77
2023/10/26 00:15:38;;;;;;;12.18;2.85;;;14.70;80.00;;;;;;5051674;28;20021;-82
2023/10/26 00:18:05;;;;;;;10.10;1.92;;;14.80;79.10;;;;;;5049284;28;20040;-85
2023/10/26 00:20:33;;;;;;;8.57;1.90;;;14.80;78.20;;;;;;5049870;28;20021;-84
2023/10/26 00:23:01;;;;;;;7.10;2.17;;;14.80;77.00;;;;;;5045400;28;20025;-78
2023/10/26 00:25:29;;;;;;;6.50;2.13;;;14.90;76.40;;;;;;5040395;28;20539;-77
2023/10/26 00:27:56;;;;;;;5.20;1.52;;;14.90;75.90;;;;;;5046679;28;20484;-76
2023/10/26 00:30:24;;;;;;;4.22;1.33;;;15.00;74.10;;;;;;5051512;28;20028;-84
2023/10/26 00:32:51;;;;;;;8.57;1.98;;;14.90;71.70;;;;;;5051974;28;20036;-81
2023/10/26 00:35:19;;;;;;;9.88;1.67;;;15.00;72.20;;;;;;5059367;28;20476;-77
2023/10/26 00:37:46;;;;;;;9.95;1.50;;;15.00;69.30;;;;;;5054096;28;20489;-76
2023/10/26 00:40:13;;;;;;;5.25;1.58;;;15.00;67.70;;;;;;5049194;28;20038;-77
2023/10/26 00:42:42;;;;;;;9.60;1.70;;;15.00;67.60;;;;;;5049868;28;20025;-75
2023/10/26 00:45:09;;;;;;;5.93;1.95;;;15.10;66.60;;;;;;5051273;28;20025;-78
2023/10/26 00:47:37;;;;;;;3.50;1.50;;;15.20;66.90;;;;;;5040678;28;20104;-76
2023/10/26 00:50:06;;;;;;;8.27;2.00;;;15.30;67.60;;;;;;5038699;28;20026;-76
2023/10/26 00:52:35;;;;;;;8.13;2.05;;;15.40;65.70;;;;;;5045596;28;20032;-75
2023/10/26 00:55:06;;;;;;;6.50;1.80;;;15.50;66.00;;;;;;5047017;28;20043;-77
2023/10/26 00:57:34;;;;;;;9.18;2.20;;;15.60;66.60;;;;;;5051140;28;20044;-75
2023/10/26 01:00:02;;;;;;;7.10;1.73;;;15.70;64.80;;;;;;5046246;28;20029;-76
2023/10/26 01:02:31;;;;;;;9.25;1.90;;;15.70;64.70;;;;;;5046784;28;20434;-75
2023/10/26 01:04:59;;;;;;;8.23;1.70;;;15.70;63.90;;;;;;5045173;28;20076;-75
2023/10/26 01:07:26;;;;;;;4.53;1.55;;;15.70;62.50;;;;;;5039821;28;20025;-79
2023/10/26 01:09:54;;;;;;;4.93;1.55;;;15.70;62.00;;;;;;5047861;28;20104;-76
2023/10/26 01:12:22;;;;;;;4.18;1.80;;;15.70;63.00;;;;;;5044438;28;20052;-75
2023/10/26 01:14:50;;;;;;;6.57;1.63;;;15.70;61.70;;;;;;5042235;28;20473;-77
2023/10/26 01:17:18;;;;;;;3.97;1.40;;;15.70;61.50;;;;;;5038473;28;20049;-76
2023/10/26 01:19:49;;;;;;;7.25;1.63;;;15.70;62.90;;;;;;5046983;28;20361;-75
2023/10/26 01:22:16;;;;;;;6.78;1.42;;;15.70;63.50;;;;;;5035881;28;20029;-76
2023/10/26 01:24:44;;;;;;;10.07;1.40;;;15.70;62.40;;;;;;5042145;28;20021;-76
2023/10/26 01:27:11;;;;;;;6.55;1.58;;;15.60;60.40;;;;;;5040443;28;20033;-75
2023/10/26 01:29:38;;;;;;;5.03;1.40;;;15.50;59.30;;;;;;5035978;28;20450;-76
2023/10/26 01:32:06;;;;;;;4.18;1.50;;;15.50;60.60;;;;;;5055481;28;20422;-76
2023/10/26 01:34:34;;;;;;;4.93;1.55;;;15.50;60.50;;;;;;5042940;28;20431;-75
2023/10/26 01:37:04;;;;;;;4.80;1.60;;;15.50;59.80;;;;;;5047780;28;20476;-76
2023/10/26 01:39:32;;;;;;;3.67;1.17;;;15.50;60.50;;;;;;5053608;28;20540;-75
2023/10/26 01:42:01;;;;;;;10.25;1.52;;;15.40;60.70;;;;;;5041708;28;20049;-75
2023/10/26 01:44:28;;;;;;;8.48;1.50;;;15.40;61.20;;;;;;5034459;28;20484;-77
2023/10/26 01:46:56;;;;;;;4.90;1.70;;;15.50;60.80;;;;;;5034250;28;20064;-79
2023/10/26 01:49:23;;;;;;;7.10;1.50;;;15.40;60.70;;;;;;5043025;28;20017;-79
2023/10/26 01:51:51;;;;;;;5.45;1.42;;;15.40;60.80;;;;;;5040978;28;20025;-76
2023/10/26 01:54:18;;;;;;;3.88;1.23;;;15.50;61.20;;;;;;5039536;28;20029;-77
2023/10/26 01:56:45;;;;;;;4.50;1.48;;;15.50;60.20;;;;;;5039024;28;20021;-74
2023/10/26 01:59:13;;;;;;;4.30;1.30;;;15.50;60.20;;;;;;5050793;28;20416;-81
2023/10/26 02:01:40;;;;;;;4.53;1.30;;;15.60;60.40;;;;;;5036005;28;20025;-76
2023/10/26 02:04:07;;;;;;;6.30;1.88;;;15.60;60.50;;;;;;5039702;28;20628;-79
2023/10/26 02:06:35;;;;;;;6.10;1.30;;;15.70;62.70;;;;;;5044622;28;20045;-75
2023/10/26 02:09:02;;;;;;;8.27;1.58;;;15.70;64.00;;;;;;5052454;28;20766;-75
2023/10/26 02:11:30;;;;;;;4.80;1.20;;;15.70;64.60;;;;;;5037519;28;20033;-76
2023/10/26 02:13:57;;;;;;;5.60;1.20;;;15.70;65.10;;;;;;5048738;28;20033;-76
2023/10/26 02:16:24;;;;;;;7.20;1.40;;;15.70;64.30;;;;;;5042585;28;20460;-77
2023/10/26 02:18:52;;;;;;;5.80;1.40;;;15.70;64.90;;;;;;5048578;28;20063;-78
2023/10/26 02:21:19;;;;;;;7.22;1.60;;;15.70;65.40;;;;;;5035630;28;20025;-76
2023/10/26 02:23:46;;;;;;;5.57;1.38;;;15.70;65.40;;;;;;5045896;28;20387;-77
2023/10/26 02:26:14;;;;;;;7.38;1.67;;;15.80;65.70;;;;;;5044508;28;20439;-77
2023/10/26 02:28:41;;;;;;;7.75;1.52;;;15.90;65.40;;;;;;5046096;28;20033;-75
2023/10/26 02:31:09;;;;;;;5.82;1.60;;;15.90;64.80;;;;;;5034043;28;20591;-76
2023/10/26 02:33:36;;;;;;;13.98;1.60;;;16.00;61.80;;;;;;5034554;28;20435;-76
2023/10/26 02:36:06;;;;;;;6.00;1.08;;;16.00;60.70;;;;;;5034415;28;20079;-76
2023/10/26 02:38:33;;;;;;;8.38;1.48;;;16.00;60.20;;;;;;5032456;28;20064;-76
2023/10/26 02:41:05;;;;;;;2.33;1.00;;;16.00;59.00;;;;;;5034018;28;20504;-76
2023/10/26 02:43:33;;;;;;;5.72;1.17;;;16.10;59.10;;;;;;5033786;28;20074;-76
2023/10/26 02:46:06;;;;;;;7.88;1.30;;;16.20;59.80;;;;;;5034164;28;20022;-76
2023/10/26 02:48:34;;;;;;;3.67;0.90;;;16.20;58.80;;;;;;5034041;28;20025;-76
2023/10/26 02:51:03;;;;;;;4.38;1.30;;;16.30;58.40;;;;;;5034249;28;20029;-76
2023/10/26 02:53:30;;;;;;;9.13;1.38;;;16.30;57.70;;;;;;5034067;28;20029;-76
2023/10/26 02:55:58;;;;;;;3.88;1.10;;;16.40;57.60;;;;;;5034002;28;20025;-78
2023/10/26 02:58:25;;;;;;;10.07;1.35;;;16.50;57.60;;;;;;5033998;28;20032;-76
2023/10/26 03:00:54;;;;;;;6.07;1.20;;;16.50;58.10;;;;;;5033916;28;20025;-75
2023/10/26 03:03:22;;;;;;;7.22;1.33;;;16.60;57.60;;;;;;5033749;28;20017;-76
2023/10/26 03:05:49;;;;;;;4.93;1.30;;;16.60;58.10;;;;;;5033887;28;20036;-74
2023/10/26 03:08:17;;;;;;;6.80;1.30;;;16.70;58.70;;;;;;5033785;28;20049;-75
2023/10/26 03:10:45;;;;;;;6.72;1.50;;;16.70;57.60;;;;;;5033810;28;20025;-76
2023/10/26 03:13:12;;;;;;;7.25;1.65;;;16.70;57.70;;;;;;5033464;28;20092;-75
2023/10/26 03:15:40;;;;;;;7.40;1.00;;;16.70;57.90;;;;;;5033829;28;20057;-76
2023/10/26 03:18:07;;;;;;;9.80;1.40;;;16.80;57.30;;;;;;5033767;28;20535;-75
2023/10/26 03:20:34;;;;;;;11.95;2.13;;;16.80;56.30;;;;;;5033614;28;20030;-75
2023/10/26 03:23:04;;;;;;;6.80;1.00;;;16.90;57.00;;;;;;5033573;28;20022;-76
2023/10/26 03:25:32;;;;;;;5.05;1.40;;;16.90;56.90;;;;;;5033760;28;20550;-76
2023/10/26 03:28:00;;;;;;;5.82;0.93;;;16.80;56.50;;;;;;5033108;28;20037;-77
2023/10/26 03:30:28;;;;;;;7.00;1.20;;;16.80;56.80;;;;;;5032300;28;20021;-77
2023/10/26 03:32:55;;;;;;;9.98;1.58;;;16.80;57.70;;;;;;5033413;28;20041;-78
2023/10/26 03:35:23;;;;;;;7.90;1.52;;;16.80;57.30;;;;;;5033068;28;20433;-76
2023/10/26 03:37:50;;;;;;;8.90;1.27;;;16.70;57.50;;;;;;5033326;28;20025;-77
2023/10/26 03:40:19;;;;;;;6.55;1.10;;;16.70;57.00;;;;;;5033213;28;20091;-75
2023/10/26 03:42:46;;;;;;;7.78;1.23;;;16.70;56.90;;;;;;5033200;28;20017;-78
2023/10/26 03:45:14;;;;;;;6.90;1.50;;;16.70;56.90;;;;;;5033004;28;20032;-83
2023/10/26 03:47:41;;;;;;;5.90;1.35;;;16.60;56.30;;;;;;5033125;28;20025;-77
2023/10/26 03:50:09;;;;;;;8.25;1.30;;;16.60;55.90;;;;;;5033069;28;20048;-80
2023/10/26 03:52:40;;;;;;;7.32;1.30;;;16.60;55.20;;;;;;5032952;28;20393;-77
2023/10/26 03:55:08;;;;;;;6.30;1.35;;;16.60;56.10;;;;;;5032898;28;20021;-79
2023/10/26 03:57:35;;;;;;;6.88;1.48;;;16.40;55.20;;;;;;5033161;28;20030;-78
2023/10/26 04:00:04;;;;;;;8.52;2.20;;;16.40;55.50;;;;;;5032420;28;20380;-77
2023/10/26 04:02:31;;;;;;;7.20;1.52;;;16.40;56.20;;;;;;5032760;28;20029;-77
2023/10/26 04:04:58;;;;;;;5.40;1.20;;;16.40;56.40;;;;;;5032910;28;20029;-77
2023/10/26 04:07:27;;;;;;;5.30;1.50;;;16.50;57.20;;;;;;5032675;28;20048;-77
2023/10/26 04:09:54;;;;;;;8.23;1.65;;;16.50;56.90;;;;;;5032866;28;20057;-77
2023/10/26 04:12:22;;;;;;;12.93;1.63;;;16.40;55.10;;;;;;5032825;28;20033;-76
2023/10/26 04:14:49;;;;;;;6.30;1.10;;;16.50;56.10;;;;;;5032762;28;20036;-77
2023/10/26 04:17:17;;;;;;;7.78;1.25;;;16.40;55.00;;;;;;5032532;28;20029;-77
2023/10/26 04:19:44;;;;;;;7.10;1.25;;;16.50;54.90;;;;;;5032286;28;20473;-77
2023/10/26 04:22:11;;;;;;;5.30;1.05;;;16.50;55.20;;;;;;5032722;28;20104;-76
2023/10/26 04:24:39;;;;;;;6.53;1.30;;;16.60;55.90;;;;;;5033204;28;20025;-76
2023/10/26 04:27:09;;;;;;;8.70;1.27;;;16.50;55.60;;;;;;5032499;28;20399;-76
2023/10/26 04:29:36;;;;;;;4.85;1.20;;;16.60;56.20;;;;;;5032646;28;20404;-76
2023/10/26 04:32:04;;;;;;;6.85;1.27;;;16.60;57.10;;;;;;5032631;28;20116;-76
2023/10/26 04:34:31;;;;;;;21.77;1.83;;;16.70;57.60;;;;;;5032392;28;20030;-77
2023/10/26 04:36:59;;;;;;;10.48;1.55;;;16.70;58.10;;;;;;5032477;28;20025;-76
2023/10/26 04:39:26;;;;;;;10.98;1.73;;;16.70;58.10;;;;;;5032220;28;20021;-76
2023/10/26 04:41:53;;;;;;;6.75;1.15;;;16.70;57.70;;;;;;5032814;28;20034;-76
2023/10/26 04:44:21;;;;;;;13.23;1.52;;;16.70;57.80;;;;;;5032638;28;20109;-77
2023/10/26 04:46:48;;;;;;;5.88;1.40;;;16.80;57.30;;;;;;5032562;28;20029;-77
2023/10/26 04:49:15;;;;;;;7.13;1.55;;;16.80;57.70;;;;;;5032293;28;20026;-76
2023/10/26 04:51:43;;;;;;;7.93;1.50;;;16.90;56.80;;;;;;5032509;28;20026;-79
2023/10/26 04:54:10;;;;;;;5.93;1.30;;;16.80;54.70;;;;;;5032546;28;20033;-76
2023/10/26 04:56:38;;;;;;;7.90;1.40;;;16.90;55.30;;;;;;5032312;28;20032;-76
2023/10/26 04:59:05;;;;;;;5.03;1.15;;;16.90;54.60;;;;;;5032175;28;20018;-74
2023/10/26 05:01:32;;;;;;;5.38;1.23;;;16.90;54.60;;;;;;5032409;28;20354;-76
2023/10/26 05:04:00;;;;;;;5.35;1.27;;;16.90;54.00;;;;;;5032163;28;20398;-75
2023/10/26 05:06:27;;;;;;;4.75;1.23;;;17.00;53.80;;;;;;5035306;28;20106;-76
2023/10/26 05:08:55;;;;;;;5.65;1.38;;;17.00;53.30;;;;;;5036051;28;20022;-77
2023/10/26 05:11:22;;;;;;;7.60;1.27;;;17.00;54.90;;;;;;5035699;28;20041;-76
2023/10/26 05:13:52;;;;;;;5.65;1.25;;;17.00;55.10;;;;;;5035983;28;20341;-76
2023/10/26 05:16:20;;;;;;;6.85;1.65;;;17.00;53.90;;;;;;5035926;28;20041;-75
2023/10/26 05:18:47;;;;;;;4.75;1.40;;;16.90;55.00;;;;;;5035948;28;20384;-75
2023/10/26 05:21:14;;;;;;;9.73;1.63;;;16.90;54.80;;;;;;5035752;28;20435;-76
2023/10/26 05:23:43;;;;;;;6.32;1.40;;;16.80;55.30;;;;;;5036553;28;20473;-75
2023/10/26 05:26:11;;;;;;;6.57;1.33;;;16.70;56.20;;;;;;5038318;28;20017;-75
2023/10/26 05:28:38;;;;;;;6.95;1.52;;;16.70;56.00;;;;;;5042547;28;20029;-75
2023/10/26 05:31:06;;;;;;;9.82;1.58;;;16.70;55.10;;;;;;5056443;28;20013;-75
2023/10/26 05:33:33;;;;;;;7.22;3.03;;;16.70;55.70;;;;;;5055446;28;20102;-76
2023/10/26 05:36:00;;;;;;;14.07;1.70;;;16.70;55.30;;;;;;5055362;28;20021;-75
2023/10/26 05:38:28;;;;;;;11.63;1.80;;;16.60;55.30;;;;;;5055483;28;20027;-79
2023/10/26 05:40:56;;;;;;;8.10;1.50;;;16.60;55.30;;;;;;5055160;28;20053;-77
2023/10/26 05:43:24;;;;;;;8.73;1.73;;;16.60;55.80;;;;;;5054908;28;20029;-81
2023/10/26 05:45:53;;;;;;;8.48;1.90;;;16.60;56.00;;;;;;5055402;28;20025;-80
2023/10/26 05:48:23;;;;;;;7.68;1.60;;;16.60;55.50;;;;;;5055143;28;20028;-77
2023/10/26 05:50:50;;;;;;;15.07;2.47;;;16.60;56.00;;;;;;5055280;28;20021;-77
2023/10/26 05:53:17;;;;;;;8.30;1.80;;;16.50;55.60;;;;;;5054969;28;20029;-77
2023/10/26 05:55:55;;;;;;;7.72;1.67;;;16.40;55.00;;;;;;5055041;28;20053;-76
2023/10/26 05:58:22;;;;;;;9.52;2.42;;;16.40;54.90;;;;;;5054932;28;20051;-77
2023/10/26 06:00:50;;;;;;;9.95;1.63;;;16.40;54.00;;;;;;5055077;28;20120;-76
2023/10/26 06:03:17;;;;;;;10.48;1.58;;;16.40;54.10;;;;;;5054633;28;20013;-78
2023/10/26 06:05:44;;;;;;;9.98;1.63;;;16.40;54.10;;;;;;5055052;28;20018;-77
2023/10/26 06:08:14;;;;;;;10.75;2.22;;;16.40;54.80;;;;;;5054811;28;20029;-77
2023/10/26 06:10:41;;;;;;;11.75;2.00;;;16.40;54.70;;;;;;5054429;28;20093;-76
2023/10/26 06:13:09;;;;;;;7.15;2.25;;;16.40;53.90;;;;;;5054515;28;20037;-75
2023/10/26 06:15:37;;;;;;;9.80;1.75;;;16.40;54.00;;;;;;5053571;28;20048;-76
2023/10/26 06:18:05;;;;;;;9.48;1.50;;;16.40;54.30;;;;;;5052140;28;20041;-76
2023/10/26 06:20:32;;;;;;;9.70;2.05;;;16.40;53.70;;;;;;5054642;28;20021;-75
2023/10/26 06:22:59;;;;;;;8.27;1.55;;;16.40;54.70;;;;;;5054534;28;20032;-75
2023/10/26 06:25:28;;;;;;;14.38;2.30;;;16.30;55.20;;;;;;5054450;28;20151;-76
2023/10/26 06:27:56;;;;;;;8.45;1.50;;;16.40;55.50;;;;;;5054593;28;20484;-79
2023/10/26 06:30:25;;;;;;;9.30;1.80;;;16.40;56.00;;;;;;5054727;28;20472;-77
2023/10/26 06:32:52;;;;;;;7.65;1.55;;;16.40;55.90;;;;;;5054230;28;20036;-75
2023/10/26 06:35:20;;;;;;;8.15;1.40;;;16.40;55.70;;;;;;5054400;28;20043;-76
2023/10/26 06:37:47;;;;;;;8.88;2.05;;;16.40;56.40;;;;;;5052791;28;20029;-76
2023/10/26 06:40:14;;;;;;;13.95;2.15;;;16.50;56.90;;;;;;5054203;28;20033;-83
2023/10/26 06:42:42;;;;;;;6.93;2.38;;;16.50;56.70;;;;;;5054018;28;20051;-75
2023/10/26 06:45:10;;;;;;;11.00;2.03;;;16.50;57.60;;;;;;5054065;28;20488;-77
2023/10/26 06:47:38;;;;;;;8.45;1.85;;;16.40;60.50;;;;;;5053861;28;20029;-75
2023/10/26 06:50:08;;;;;;;9.82;2.15;;;16.40;61.60;;;;;;5052210;28;20016;-76
2023/10/26 06:52:35;;;;;;;14.18;2.33;;;16.30;62.60;;;;;;5053401;28;20029;-76
2023/10/26 06:55:02;;;;;;;9.18;2.00;;;16.20;64.20;;;;;;5053041;28;20094;-78
2023/10/26 06:57:34;;;;;;;6.80;2.05;;;16.10;64.60;;;;;;5053240;28;20025;-76
2023/10/26 07:00:02;;;;;;;14.15;2.05;;;16.00;64.50;;;;;;5051986;28;20037;-78
2023/10/26 07:02:30;;;;;;;9.40;1.70;;;15.90;64.00;;;;;;5053478;28;20025;-77
2023/10/26 07:04:59;;;;;;;11.52;1.75;;;15.80;64.00;;;;;;5052548;28;20070;-76
2023/10/26 07:07:27;;;;;;;9.45;1.60;;;15.80;65.30;;;;;;5052982;28;20021;-77
2023/10/26 07:09:55;;;;;;;7.82;1.95;;;15.70;65.70;;;;;;5053003;28;20529;-76
2023/10/26 07:12:22;;;;;;;9.20;2.25;;;15.70;65.80;;;;;;5051654;28;20099;-77
2023/10/26 07:14:54;;;;;;;8.55;1.80;;;15.70;65.50;;;;;;5053119;28;20166;-76
2023/10/26 07:17:23;;;;;;;12.05;1.75;;;15.70;65.10;;;;;;5052942;28;20025;-76
2023/10/26 07:19:54;;;;;;;9.02;2.15;;;15.70;66.00;;;;;;5053387;28;20017;-76
2023/10/26 07:22:21;;;;;;;11.52;2.50;;;15.70;66.30;;;;;;5053379;28;20055;-77
2023/10/26 07:24:49;;;;;;;8.70;1.85;;;15.60;66.70;;;;;;5053389;28;20032;-76
2023/10/26 07:27:16;;;;;;;8.05;1.83;;;15.60;67.10;;;;;;5053099;28;20031;-76
2023/10/26 07:29:44;;;;;;;5.72;1.48;;;15.50;67.60;;;;;;5051463;28;20178;-76
2023/10/26 07:32:11;;;;;;;12.43;2.22;;;15.50;68.20;;;;;;5053081;28;20360;-76
2023/10/26 07:34:39;;;;;;;10.38;2.28;;;15.50;68.40;;;;;;5053385;28;20039;-76
2023/10/26 07:37:06;;;;;;;12.02;2.25;;;15.50;68.80;;;;;;5053146;28;20033;-75
2023/10/26 07:39:35;;;;;;;12.60;2.58;;;15.50;69.40;;;;;;5053516;28;20031;-84
2023/10/26 07:42:05;;;;;;;12.27;2.35;;;15.50;70.00;;;;;;5053557;28;20021;-84
2023/10/26 07:44:33;;;;;;;9.75;2.22;;;15.30;70.40;;;;;;5053885;28;20108;-76
2023/10/26 07:47:01;;;;;;;10.05;2.20;;;15.20;71.00;;;;;;5052945;28;20021;-76
2023/10/26 07:49:28;;;;;;;13.95;2.20;;;15.20;71.70;;;;;;5046939;28;20029;-78
2023/10/26 07:51:55;;;;;;;14.65;2.70;;;15.10;71.90;;;;;;5053128;28;20112;-77
2023/10/26 07:54:23;;;;;;;18.70;2.75;;;15.10;72.40;;;;;;5052913;28;20021;-77
2023/10/26 07:56:50;;;;;;;11.70;2.13;;;15.10;73.10;;;;;;5052835;28;20491;-75
2023/10/26 07:59:18;;;;;;;14.32;2.22;;;15.00;73.60;;;;;;5052709;28;20033;-77
2023/10/26 08:01:45;;;;;;;13.82;2.47;;;14.90;73.90;;;;;;5051548;28;20496;-80
2023/10/26 08:04:13;;;;;;;14.88;2.97;;;14.90;74.40;;;;;;5052689;28;20021;-79
2023/10/26 08:06:41;;;;;;;10.35;1.98;;;14.80;74.60;;;;;;5052954;28;20158;-79
2023/10/26 08:09:08;;;;;;;14.10;2.78;;;14.80;75.00;;;;;;5052750;28;20028;-79
2023/10/26 08:11:35;;;;;;;18.40;2.88;;;14.80;75.20;;;;;;5052801;28;20108;-79
2023/10/26 08:14:03;;;;;;;11.82;2.15;;;14.80;74.90;;;;;;5053019;28;20033;-77
2023/10/26 08:16:30;;;;;;;11.82;2.30;;;14.80;74.70;;;;;;5068008;28;20075;-78
2023/10/26 08:18:58;;;;;;;13.20;1.85;;;14.80;74.30;;;;;;5052672;28;20029;-79
2023/10/26 08:21:26;;;;;;;12.70;2.30;;;14.80;74.20;;;;;;5052592;28;20025;-79
2023/10/26 08:23:53;;;;;;;11.40;2.00;;;14.70;73.70;;;;;;5052752;28;20028;-79
2023/10/26 08:26:20;;;;;;;9.38;2.13;;;14.70;73.00;;;;;;5052680;28;20055;-79
2023/10/26 08:28:48;;;;;;;12.50;1.90;;;14.70;73.40;;;;;;5068217;28;20040;-79
2023/10/26 08:31:15;;;;;;;10.70;2.08;;;14.70;73.10;;;;;;5052406;28;20105;-78
2023/10/26 08:33:42;;;;;;;12.00;1.67;;;14.70;72.70;;;;;;5052542;28;20111;-78
2023/10/26 08:36:10;;;;;;;9.55;1.77;;;14.70;71.50;;;;;;5052603;28;20021;-78
2023/10/26 08:38:37;;;;;;;8.32;1.70;;;14.70;71.60;;;;;;5052732;28;20037;-77
2023/10/26 08:41:05;;;;;;;15.13;2.08;;;14.70;72.40;;;;;;5054783;28;20124;-79
2023/10/26 08:43:33;;;;;;;12.68;2.65;;;14.70;71.90;;;;;;5056494;28;20025;-79
2023/10/26 08:46:01;;;;;;;13.77;2.22;;;14.80;71.90;;;;;;5056752;28;20025;-79
2023/10/26 08:48:34;;;;;;;12.15;2.30;;;14.80;71.90;;;;;;5057354;28;20061;-77
2023/10/26 08:51:02;;;;;;;10.98;2.03;;;14.80;70.60;;;;;;5057571;28;20035;-77
2023/10/26 08:53:31;;;;;;;11.85;2.10;;;14.80;70.50;;;;;;5056466;28;20534;-78
2023/10/26 08:56:00;;;;;;;13.85;2.33;;;14.90;70.50;;;;;;5057013;28;20052;-77
2023/10/26 08:58:27;;;;;;;11.65;1.92;;;14.90;69.80;;;;;;5055423;28;20029;-78
2023/10/26 09:00:55;;;;;;;11.63;2.50;;;14.90;69.30;;;;;;5056760;28;20025;-77
2023/10/26 09:03:22;;;;;;;7.55;1.70;;;15.00;68.30;;;;;;5050273;28;20033;-79
2023/10/26 09:05:54;;;;;;;12.13;2.10;;;15.10;68.90;;;;;;5056551;28;20213;-77
2023/10/26 09:08:27;;;;;;;12.10;1.95;;;15.10;68.50;;;;;;5056243;28;20036;-78
2023/10/26 09:10:54;;;;;;;12.07;2.10;;;15.10;68.20;;;;;;5056126;28;20025;-77
2023/10/26 09:13:29;;;;;;;8.55;1.70;;;15.10;68.30;;;;;;5055732;28;20084;-77
2023/10/26 09:15:59;;;;;;;10.45;1.45;;;15.20;67.80;;;;;;5056016;28;20024;-77
2023/10/26 09:18:31;;;;;;;10.70;1.55;;;15.20;68.00;;;;;;5055831;28;20106;-77
2023/10/26 09:21:06;;;;;;;6.30;2.10;;;15.20;66.80;;;;;;5055794;28;20029;-78
2023/10/26 09:23:39;;;;;;;7.68;1.92;;;15.20;65.80;;;;;;5055773;28;20048;-77
2023/10/26 09:26:10;;;;;;;10.43;2.00;;;15.20;65.30;;;;;;5071119;28;20021;-77
2023/10/26 09:28:55;;;;;;;8.52;1.45;;;15.20;65.20;;;;;;5053931;28;20368;-77
2023/10/26 09:31:24;;;;;;;9.82;1.60;;;15.20;65.50;;;;;;5055497;28;20044;-78
2023/10/26 09:33:52;;;;;;;7.18;1.58;;;15.30;66.10;;;;;;5055692;28;20036;-78
2023/10/26 09:36:20;;;;;;;12.35;2.33;;;15.30;66.80;;;;;;5055633;28;20175;-78
2023/10/26 09:38:48;;;;;;;14.30;2.15;;;15.40;67.10;;;;;;5055821;28;20384;-78
2023/10/26 09:41:20;;;;;;;11.13;1.70;;;15.40;67.30;;;;;;5055223;28;20049;-78
2023/10/26 09:43:47;;;;;;;8.57;2.08;;;15.40;67.00;;;;;;5055469;28;20127;-77
2023/10/26 09:46:17;;;;;;;13.20;2.20;;;15.50;67.30;;;;;;5049468;28;20026;-78
2023/10/26 09:48:45;;;;;;;11.50;1.85;;;15.50;67.70;;;;;;5055085;28;20053;-78
2023/10/26 09:51:13;;;;;;;12.25;2.10;;;15.50;67.30;;;;;;5055047;28;20116;-78
2023/10/26 09:53:41;;;;;;;12.85;2.70;;;15.50;67.50;;;;;;5055301;28;20123;-78
2023/10/26 09:56:14;;;;;;;14.05;2.35;;;15.60;67.50;;;;;;5057385;28;20448;-78
2023/10/26 09:58:42;;;;;;;9.63;1.80;;;15.60;66.50;;;;;;5056631;28;20104;-78
2023/10/26 10:01:32;;;;;;;9.30;1.88;;;15.50;65.20;;;;;;5057379;28;20081;-77
2023/10/26 10:04:00;;;;;;;8.75;1.65;;;15.50;64.50;;;;;;5058713;28;20021;-77
2023/10/26 10:06:52;;;;;;;15.00;2.47;;;15.50;65.00;;;;;;5056745;28;20025;-78
2023/10/26 10:09:24;;;;;;;11.07;1.70;;;15.60;64.50;;;;;;5055027;28;20029;-78
2023/10/26 10:12:16;;;;;;;12.05;2.10;;;15.60;65.00;;;;;;5050812;28;20041;-79
2023/10/26 10:15:01;;;;;;;12.93;1.75;;;15.60;65.10;;;;;;5034969;28;20033;-77
2023/10/26 10:17:49;;;;;;;11.55;1.85;;;15.60;66.10;;;;;;5034510;28;20030;-77
2023/10/26 10:20:19;;;;;;;14.55;2.30;;;15.60;66.60;;;;;;5034775;28;20105;-79
2023/10/26 10:22:46;;;;;;;11.05;2.10;;;15.60;66.40;;;;;;5034926;28;20132;-77
2023/10/26 10:25:16;;;;;;;10.77;1.90;;;15.60;65.70;;;;;;5034570;28;20017;-79
2023/10/26 10:27:49;;;;;;;14.13;2.08;;;15.60;65.80;;;;;;5035609;28;20036;-78
2023/10/26 10:30:21;;;;;;;10.63;1.60;;;15.60;65.90;;;;;;5035945;28;20479;-78
2023/10/26 10:32:50;;;;;;;7.82;2.00;;;15.60;65.50;;;;;;5034488;28;20503;-77
2023/10/26 10:35:55;;;;;;;6.97;1.45;;;15.70;64.80;;;;;;5034470;28;20199;-79
2023/10/26 10:38:24;;;;;;;8.77;1.98;;;15.60;64.40;;;;;;5001156;28;20069;-78
2023/10/26 10:41:01;;;;;;;8.25;1.65;;;15.70;64.50;;;;;;5034354;28;20124;-78
2023/10/26 10:43:47;;;;;;;6.07;1.30;;;15.70;63.50;;;;;;5034259;28;20176;-78
2023/10/26 10:46:23;;;;;;;;;;;15.70;63.30;;;;;;5033300;28;20036;-79
2023/10/26 10:48:57;;;;;;;9.27;2.00;;;15.70;63.10;;;;;;5034410;28;19909;-76
2023/10/26 10:51:41;;;;;;;13.25;1.80;;;15.70;62.80;;;;;;5034074;28;20017;-77
2023/10/26 10:54:21;;;;;;;9.02;1.52;;;15.70;62.80;;;;;;5034254;28;20037;-77
2023/10/26 10:56:50;;;;;;;9.43;1.70;;;15.70;62.60;;;;;;5034140;28;20074;-79
2023/10/26 10:59:21;;;;;;;9.65;1.90;;;15.80;62.90;;;;;;5034004;28;20068;-78
2023/10/26 11:02:07;;;;;;;11.80;1.88;;;15.80;62.90;;;;;;5033901;28;20025;-78
2023/10/26 11:04:35;;;;;;;11.80;2.03;;;15.80;63.10;;;;;;5033513;28;20026;-78
2023/10/26 11:07:02;;;;;;;15.88;2.17;;;15.80;63.20;;;;;;5034016;28;20361;-77
2023/10/26 11:09:40;;;;;;;8.63;1.50;;;15.80;62.60;;;;;;5033929;28;20037;-77
2023/10/26 11:12:13;;;;;;;10.10;1.42;;;15.80;62.30;;;;;;5033791;28;20037;-79
2023/10/26 11:14:51;;;;;;;10.32;1.73;;;15.80;61.60;;;;;;5032820;28;20380;-79
2023/10/26 11:17:25;;;;;;;4.90;1.33;;;15.80;60.90;;;;;;5033486;28;20353;-78
2023/10/26 11:19:54;;;;;;;11.63;1.75;;;15.80;61.00;;;;;;5033752;28;20033;-78
2023/10/26 11:22:22;;;;;;;8.35;1.73;;;15.80;60.20;;;;;;5033801;28;20017;-77
2023/10/26 11:24:50;;;;;;;7.88;1.75;;;15.80;60.40;;;;;;5033532;28;20028;-79
2023/10/26 11:27:23;;;;;;;8.85;2.05;;;15.80;60.30;;;;;;5033501;28;20032;-79
2023/10/26 11:30:05;;;;;;;5.60;1.50;;;15.80;59.60;;;;;;5033489;28;20025;-77
2023/10/26 11:32:33;;;;;;;10.45;1.50;;;15.80;59.80;;;;;;5033344;28;20026;-79
2023/10/26 11:35:13;;;;;;;8.52;1.70;;;15.80;59.80;;;;;;5033571;28;20017;-80
2023/10/26 11:37:55;;;;;;;5.88;1.77;;;15.80;59.80;;;;;;5033502;28;20036;-78
2023/10/26 11:40:32;;;;;;;6.68;1.20;;;15.80;60.30;;;;;;5033175;28;20034;-79
2023/10/26 11:43:02;;;;;;;9.48;1.67;;;15.80;60.20;;;;;;5033438;28;20489;-79
2023/10/26 11:45:46;;;;;;;9.88;1.90;;;15.80;60.40;;;;;;5033350;28;20483;-77
2023/10/26 11:48:25;;;;;;;11.88;1.67;;;15.80;60.10;;;;;;5033098;28;20040;-77
2023/10/26 11:50:52;;;;;;;6.97;1.30;;;15.80;60.10;;;;;;5033231;28;20061;-77
2023/10/26 11:53:23;;;;;;;6.60;1.60;;;15.80;59.30;;;;;;5033159;28;20048;-79
2023/10/26 11:55:51;;;;;;;8.32;1.65;;;15.80;59.20;;;;;;5033053;28;20040;-77
2023/10/26 11:58:19;;;;;;;8.98;1.60;;;15.80;59.00;;;;;;5031910;28;20021;-78
2023/10/26 12:00:47;;;;;;;10.52;1.88;;;15.80;60.10;;;;;;5032810;28;20028;-79
2023/10/26 12:03:14;;;;;;;7.72;1.50;;;15.80;61.30;;;;;;5036216;28;20021;-78
2023/10/26 12:05:43;;;;;;;8.13;2.95;;;15.80;61.50;;;;;;5046739;28;20033;-80
2023/10/26 12:08:10;;;;;;;11.70;1.98;;;15.70;62.00;;;;;;5053004;28;20104;-78
2023/10/26 12:10:42;;;;;;;10.75;1.55;;;15.80;62.40;;;;;;5051899;28;20075;-78
2023/10/26 12:13:09;;;;;;;10.40;1.60;;;15.70;62.00;;;;;;5052745;28;20029;-78
2023/10/26 12:15:36;;;;;;;9.57;1.58;;;15.70;61.40;;;;;;5052985;28;20013;-77
2023/10/26 12:18:04;;;;;;;5.78;1.25;;;15.70;60.40;;;;;;5053053;28;20031;-79
2023/10/26 12:20:31;;;;;;;8.05;1.70;;;15.70;59.90;;;;;;5053015;28;20075;-82
2023/10/26 12:22:59;;;;;;;7.72;1.30;;;15.70;59.50;;;;;;5053051;28;20021;-78
2023/10/26 12:25:27;;;;;;;6.60;1.45;;;15.70;59.40;;;;;;5052545;28;20099;-77
2023/10/26 12:27:55;;;;;;;5.57;1.13;;;15.70;60.10;;;;;;5052836;28;20498;-78
2023/10/26 12:30:22;;;;;;;9.73;1.55;;;15.70;59.60;;;;;;5052709;28;20044;-77
2023/10/26 12:32:50;;;;;;;9.25;1.65;;;15.70;59.80;;;;;;5052502;28;20037;-78
2023/10/26 12:35:17;;;;;;;7.80;1.60;;;15.70;59.90;;;;;;5052593;28;20020;-76
2023/10/26 12:37:44;;;;;;;9.40;1.90;;;15.70;59.10;;;;;;5052928;28;20074;-76
2023/10/26 12:40:12;;;;;;;12.30;1.85;;;15.70;59.20;;;;;;5067723;28;20041;-77
2023/10/26 12:42:40;;;;;;;9.60;2.08;;;15.70;60.60;;;;;;5053077;28;20151;-78
2023/10/26 12:45:08;;;;;;;9.63;1.88;;;15.80;61.50;;;;;;5052392;28;20021;-77
2023/10/26 12:47:35;;;;;;;6.68;1.70;;;15.80;61.60;;;;;;5052321;28;20116;-83
2023/10/26 12:50:03;;;;;;;6.97;1.30;;;15.80;61.60;;;;;;5052462;28;20029;-77
2023/10/26 12:52:30;;;;;;;12.50;2.38;;;15.70;61.30;;;;;;5052479;28;20036;-76